sensor_id;sensor_type;location;lat;lon;timestamp;temperature;humidity
20528;DHT22;23612;50.894;10.700;2022-10-31T00:00:27;14.30;99.90
20528;DHT22;23612;50.894;10.700;2022-10-31T00:02:52;14.20;99.90
20528;DHT22;23612;50.894;10.700;2022-10-31T00:05:18;14.20;99.90
20528;DHT22;23612;50.894;10.700;2022-10-31T00:07:43;14.20;99.90
20528;DHT22;23612;50.894;10.700;2022-10-31T00:10:09;14.20;99.90
20528;DHT22;23612;50.894;10.700;2022-10-31T00:12:35;14.30;99.90
20528;DHT22;23612;50.894;10.700;2022-10-31T00:15:00;14.30;99.90
20528;DHT22;23612;50.894;10.700;2022-10-31T00:17:26;14.20;99.90
20528;DHT22;23612;50.894;10.700;2022-10-31T00:19:51;14.10;99.90
20528;DHT22;23612;50.894;10.700;2022-10-31T00:22:17;14.10;99.90
20528;DHT22;23612;50.894;10.700;2022-10-31T00:24:42;14.10;99.90
20528;DHT22;23612;50.894;10.700;2022-10-31T00:27:08;14.00;99.90
20528;DHT22;23612;50.894;10.700;2022-10-31T00:29:33;14.00;99.90
20528;DHT22;23612;50.894;10.700;2022-10-31T00:31:59;13.80;99.90
20528;DHT22;23612;50.894;10.700;2022-10-31T00:34:24;13.70;99.90
20528;DHT22;23612;50.894;10.700;2022-10-31T00:36:50;13.50;99.90
20528;DHT22;23612;50.894;10.700;2022-10-31T00:39:15;13.40;99.90
20528;DHT22;23612;50.894;10.700;2022-10-31T00:41:41;13.30;99.90
20528;DHT22;23612;50.894;10.700;2022-10-31T00:44:07;13.20;99.90
20528;DHT22;23612;50.894;10.700;2022-10-31T00:46:32;13.20;99.90
20528;DHT22;23612;50.894;10.700;2022-10-31T00:48:58;13.10;99.90
20528;DHT22;23612;50.894;10.700;2022-10-31T00:51:23;13.00;99.90
20528;DHT22;23612;50.894;10.700;2022-10-31T00:53:49;13.00;99.90
20528;DHT22;23612;50.894;10.700;2022-10-31T00:56:14;12.90;99.90
20528;DHT22;23612;50.894;10.700;2022-10-31T00:58:40;12.90;99.90
20528;DHT22;23612;50.894;10.700;2022-10-31T01:01:05;12.80;99.90
20528;DHT22;23612;50.894;10.700;2022-10-31T01:03:32;12.80;99.90
20528;DHT22;23612;50.894;10.700;2022-10-31T01:08:24;12.60;99.90
20528;DHT22;23612;50.894;10.700;2022-10-31T01:11:13;12.50;99.90
20528;DHT22;23612;50.894;10.700;2022-10-31T01:13:39;12.40;99.90
20528;DHT22;23612;50.894;10.700;2022-10-31T01:16:06;12.40;99.90
20528;DHT22;23612;50.894;10.700;2022-10-31T01:18:33;12.30;99.90
20528;DHT22;23612;50.894;10.700;2022-10-31T01:21:01;12.30;99.90
20528;DHT22;23612;50.894;10.700;2022-10-31T01:23:27;12.30;99.90
20528;DHT22;23612;50.894;10.700;2022-10-31T01:26:08;12.30;99.90
20528;DHT22;23612;50.894;10.700;2022-10-31T01:28:37;12.30;99.90
20528;DHT22;23612;50.894;10.700;2022-10-31T01:31:05;12.30;99.90
20528;DHT22;23612;50.894;10.700;2022-10-31T01:33:30;12.30;99.90
20528;DHT22;23612;50.894;10.700;2022-10-31T01:35:56;12.20;99.90
20528;DHT22;23612;50.894;10.700;2022-10-31T01:38:22;12.20;99.90
20528;DHT22;23612;50.894;10.700;2022-10-31T01:40:48;12.20;99.90
20528;DHT22;23612;50.894;10.700;2022-10-31T01:43:14;12.20;99.90
20528;DHT22;23612;50.894;10.700;2022-10-31T01:45:41;12.20;99.90
20528;DHT22;23612;50.894;10.700;2022-10-31T01:48:15;12.20;99.90
20528;DHT22;23612;50.894;10.700;2022-10-31T01:50:43;12.20;99.90
20528;DHT22;23612;50.894;10.700;2022-10-31T01:53:12;12.20;99.90
20528;DHT22;23612;50.894;10.700;2022-10-31T01:55:44;12.10;99.90
20528;DHT22;23612;50.894;10.700;2022-10-31T01:58:22;12.10;99.90
20528;DHT22;23612;50.894;10.700;2022-10-31T02:00:54;12.10;99.90
20528;DHT22;23612;50.894;10.700;2022-10-31T02:03:22;12.20;99.90
20528;DHT22;23612;50.894;10.700;2022-10-31T02:05:48;12.20;99.90
20528;DHT22;23612;50.894;10.700;2022-10-31T02:08:23;12.10;99.90
20528;DHT22;23612;50.894;10.700;2022-10-31T02:10:50;12.00;99.90
20528;DHT22;23612;50.894;10.700;2022-10-31T02:13:16;11.90;99.90
20528;DHT22;23612;50.894;10.700;2022-10-31T02:15:43;11.80;99.90
20528;DHT22;23612;50.894;10.700;2022-10-31T02:18:09;11.80;99.90
20528;DHT22;23612;50.894;10.700;2022-10-31T02:32:19;11.90;99.90
20528;DHT22;23612;50.894;10.700;2022-10-31T02:35:14;11.90;99.90
20528;DHT22;23612;50.894;10.700;2022-10-31T02:40:35;11.80;99.90
20528;DHT22;23612;50.894;10.700;2022-10-31T02:43:12;11.80;99.90
20528;DHT22;23612;50.894;10.700;2022-10-31T02:45:48;11.70;99.90
20528;DHT22;23612;50.894;10.700;2022-10-31T02:48:19;11.60;99.90
20528;DHT22;23612;50.894;10.700;2022-10-31T02:50:50;11.60;99.90
20528;DHT22;23612;50.894;10.700;2022-10-31T02:53:17;11.40;99.90
20528;DHT22;23612;50.894;10.700;2022-10-31T02:58:39;11.40;99.90
20528;DHT22;23612;50.894;10.700;2022-10-31T03:06:26;11.40;99.90
20528;DHT22;23612;50.894;10.700;2022-10-31T03:09:23;11.40;99.90
20528;DHT22;23612;50.894;10.700;2022-10-31T03:12:07;11.40;99.90
20528;DHT22;23612;50.894;10.700;2022-10-31T03:14:50;11.40;99.90
20528;DHT22;23612;50.894;10.700;2022-10-31T03:17:29;11.40;99.90
20528;DHT22;23612;50.894;10.700;2022-10-31T03:19:59;11.30;99.90
20528;DHT22;23612;50.894;10.700;2022-10-31T03:22:28;11.20;99.90
20528;DHT22;23612;50.894;10.700;2022-10-31T03:24:55;11.10;99.90
20528;DHT22;23612;50.894;10.700;2022-10-31T03:27:26;11.00;99.90
20528;DHT22;23612;50.894;10.700;2022-10-31T03:29:57;11.00;99.90
20528;DHT22;23612;50.894;10.700;2022-10-31T03:32:31;10.90;99.90
20528;DHT22;23612;50.894;10.700;2022-10-31T03:35:01;11.00;99.90
20528;DHT22;23612;50.894;10.700;2022-10-31T03:37:29;11.00;99.90
20528;DHT22;23612;50.894;10.700;2022-10-31T03:39:58;11.00;99.90
20528;DHT22;23612;50.894;10.700;2022-10-31T03:42:26;11.00;99.90
20528;DHT22;23612;50.894;10.700;2022-10-31T03:44:58;10.90;99.90
20528;DHT22;23612;50.894;10.700;2022-10-31T03:47:25;10.80;99.90
20528;DHT22;23612;50.894;10.700;2022-10-31T03:49:51;10.80;99.90
20528;DHT22;23612;50.894;10.700;2022-10-31T03:52:27;10.80;99.90
20528;DHT22;23612;50.894;10.700;2022-10-31T03:54:57;10.70;99.90
20528;DHT22;23612;50.894;10.700;2022-10-31T03:57:39;10.70;99.90
20528;DHT22;23612;50.894;10.700;2022-10-31T04:00:09;10.80;99.90
20528;DHT22;23612;50.894;10.700;2022-10-31T04:02:40;10.80;99.90
20528;DHT22;23612;50.894;10.700;2022-10-31T04:05:07;10.80;99.90
20528;DHT22;23612;50.894;10.700;2022-10-31T04:07:37;10.70;99.90
20528;DHT22;23612;50.894;10.700;2022-10-31T04:10:07;10.60;99.90
20528;DHT22;23612;50.894;10.700;2022-10-31T04:12:36;10.50;99.90
20528;DHT22;23612;50.894;10.700;2022-10-31T04:15:04;10.30;99.90
20528;DHT22;23612;50.894;10.700;2022-10-31T04:17:34;10.20;99.90
20528;DHT22;23612;50.894;10.700;2022-10-31T04:20:01;10.20;99.90
20528;DHT22;23612;50.894;10.700;2022-10-31T04:22:27;10.20;99.90
20528;DHT22;23612;50.894;10.700;2022-10-31T04:24:53;10.20;99.90
20528;DHT22;23612;50.894;10.700;2022-10-31T04:27:18;10.20;99.90
20528;DHT22;23612;50.894;10.700;2022-10-31T04:29:44;10.20;99.90
20528;DHT22;23612;50.894;10.700;2022-10-31T04:32:09;10.20;99.90
20528;DHT22;23612;50.894;10.700;2022-10-31T04:34:35;10.20;99.90
20528;DHT22;23612;50.894;10.700;2022-10-31T04:37:00;10.10;99.90
20528;DHT22;23612;50.894;10.700;2022-10-31T04:39:26;10.10;99.90
20528;DHT22;23612;50.894;10.700;2022-10-31T04:41:51;10.10;99.90
20528;DHT22;23612;50.894;10.700;2022-10-31T04:44:17;10.10;99.90
20528;DHT22;23612;50.894;10.700;2022-10-31T04:46:43;10.10;99.90
20528;DHT22;23612;50.894;10.700;2022-10-31T04:49:08;10.10;99.90
20528;DHT22;23612;50.894;10.700;2022-10-31T04:51:34;10.10;99.90
20528;DHT22;23612;50.894;10.700;2022-10-31T04:53:59;10.10;99.90
20528;DHT22;23612;50.894;10.700;2022-10-31T04:56:25;10.10;99.90
20528;DHT22;23612;50.894;10.700;2022-10-31T04:58:51;10.10;99.90
20528;DHT22;23612;50.894;10.700;2022-10-31T05:01:16;10.00;99.90
20528;DHT22;23612;50.894;10.700;2022-10-31T05:03:42;10.00;99.90
20528;DHT22;23612;50.894;10.700;2022-10-31T05:06:07;10.00;99.90
20528;DHT22;23612;50.894;10.700;2022-10-31T05:08:33;10.00;99.90
20528;DHT22;23612;50.894;10.700;2022-10-31T05:11:03;10.00;99.90
20528;DHT22;23612;50.894;10.700;2022-10-31T05:13:29;10.00;99.90
20528;DHT22;23612;50.894;10.700;2022-10-31T05:15:55;10.00;99.90
20528;DHT22;23612;50.894;10.700;2022-10-31T05:18:20;10.00;99.90
20528;DHT22;23612;50.894;10.700;2022-10-31T05:20:46;10.00;99.90
20528;DHT22;23612;50.894;10.700;2022-10-31T05:23:12;10.00;99.90
20528;DHT22;23612;50.894;10.700;2022-10-31T05:25:39;10.00;99.90
20528;DHT22;23612;50.894;10.700;2022-10-31T05:28:05;10.00;99.90
20528;DHT22;23612;50.894;10.700;2022-10-31T05:30:31;9.90;99.90
20528;DHT22;23612;50.894;10.700;2022-10-31T05:32:57;9.90;99.90
20528;DHT22;23612;50.894;10.700;2022-10-31T05:35:29;9.90;99.90
20528;DHT22;23612;50.894;10.700;2022-10-31T05:37:55;9.90;99.90
20528;DHT22;23612;50.894;10.700;2022-10-31T05:40:21;9.90;99.90
20528;DHT22;23612;50.894;10.700;2022-10-31T05:42:50;9.80;99.90
20528;DHT22;23612;50.894;10.700;2022-10-31T05:45:17;9.80;99.90
20528;DHT22;23612;50.894;10.700;2022-10-31T05:47:49;9.80;99.90
20528;DHT22;23612;50.894;10.700;2022-10-31T05:50:15;9.80;99.90
20528;DHT22;23612;50.894;10.700;2022-10-31T05:52:40;9.90;99.90
20528;DHT22;23612;50.894;10.700;2022-10-31T05:55:06;9.80;99.90
20528;DHT22;23612;50.894;10.700;2022-10-31T05:57:32;9.80;99.90
20528;DHT22;23612;50.894;10.700;2022-10-31T05:59:59;9.80;99.90
20528;DHT22;23612;50.894;10.700;2022-10-31T06:02:24;9.80;99.90
20528;DHT22;23612;50.894;10.700;2022-10-31T06:04:50;9.90;99.90
20528;DHT22;23612;50.894;10.700;2022-10-31T06:07:15;9.80;99.90
20528;DHT22;23612;50.894;10.700;2022-10-31T06:09:41;9.90;99.90
20528;DHT22;23612;50.894;10.700;2022-10-31T06:12:07;9.80;99.90
20528;DHT22;23612;50.894;10.700;2022-10-31T06:14:32;9.80;99.90
20528;DHT22;23612;50.894;10.700;2022-10-31T06:16:58;9.80;99.90
20528;DHT22;23612;50.894;10.700;2022-10-31T06:19:23;9.80;99.90
20528;DHT22;23612;50.894;10.700;2022-10-31T06:21:49;9.90;99.90
20528;DHT22;23612;50.894;10.700;2022-10-31T06:24:14;9.80;99.90
20528;DHT22;23612;50.894;10.700;2022-10-31T06:26:42;9.80;99.90
20528;DHT22;23612;50.894;10.700;2022-10-31T06:29:08;9.80;99.90
20528;DHT22;23612;50.894;10.700;2022-10-31T06:31:33;9.80;99.90
20528;DHT22;23612;50.894;10.700;2022-10-31T06:33:59;9.90;99.90
20528;DHT22;23612;50.894;10.700;2022-10-31T06:36:24;9.90;99.90
20528;DHT22;23612;50.894;10.700;2022-10-31T06:38:50;10.00;99.90
20528;DHT22;23612;50.894;10.700;2022-10-31T06:41:16;10.00;99.90
20528;DHT22;23612;50.894;10.700;2022-10-31T06:43:41;10.10;99.90
20528;DHT22;23612;50.894;10.700;2022-10-31T06:46:07;10.20;99.90
20528;DHT22;23612;50.894;10.700;2022-10-31T06:48:32;10.20;99.90
20528;DHT22;23612;50.894;10.700;2022-10-31T06:51:01;10.30;99.90
20528;DHT22;23612;50.894;10.700;2022-10-31T06:53:28;10.40;99.90
20528;DHT22;23612;50.894;10.700;2022-10-31T06:55:55;10.50;99.90
20528;DHT22;23612;50.894;10.700;2022-10-31T06:58:21;10.60;99.90
20528;DHT22;23612;50.894;10.700;2022-10-31T07:00:47;10.60;99.90
20528;DHT22;23612;50.894;10.700;2022-10-31T07:03:14;10.70;99.90
20528;DHT22;23612;50.894;10.700;2022-10-31T07:05:41;10.80;99.90
20528;DHT22;23612;50.894;10.700;2022-10-31T07:08:11;10.80;99.90
20528;DHT22;23612;50.894;10.700;2022-10-31T07:10:37;10.90;99.90
20528;DHT22;23612;50.894;10.700;2022-10-31T07:13:05;11.30;99.90
20528;DHT22;23612;50.894;10.700;2022-10-31T07:15:36;11.80;99.90
20528;DHT22;23612;50.894;10.700;2022-10-31T07:18:03;12.50;99.90
20528;DHT22;23612;50.894;10.700;2022-10-31T07:20:30;13.20;99.90
20528;DHT22;23612;50.894;10.700;2022-10-31T07:22:57;13.80;99.90
20528;DHT22;23612;50.894;10.700;2022-10-31T07:25:23;14.40;99.90
20528;DHT22;23612;50.894;10.700;2022-10-31T07:27:49;14.80;99.90
20528;DHT22;23612;50.894;10.700;2022-10-31T07:30:14;14.90;99.90
20528;DHT22;23612;50.894;10.700;2022-10-31T07:32:44;15.10;99.90
20528;DHT22;23612;50.894;10.700;2022-10-31T07:35:12;15.70;99.90
20528;DHT22;23612;50.894;10.700;2022-10-31T07:37:39;16.30;99.90
20528;DHT22;23612;50.894;10.700;2022-10-31T07:40:06;16.80;99.90
20528;DHT22;23612;50.894;10.700;2022-10-31T07:42:36;17.00;99.90
20528;DHT22;23612;50.894;10.700;2022-10-31T07:45:03;17.40;99.90
20528;DHT22;23612;50.894;10.700;2022-10-31T07:47:28;17.90;99.90
20528;DHT22;23612;50.894;10.700;2022-10-31T07:49:54;18.30;99.90
20528;DHT22;23612;50.894;10.700;2022-10-31T07:52:19;18.80;99.90
20528;DHT22;23612;50.894;10.700;2022-10-31T07:54:45;19.10;99.90
20528;DHT22;23612;50.894;10.700;2022-10-31T07:57:10;19.50;99.90
20528;DHT22;23612;50.894;10.700;2022-10-31T07:59:36;19.90;99.90
20528;DHT22;23612;50.894;10.700;2022-10-31T08:02:01;20.50;99.90
20528;DHT22;23612;50.894;10.700;2022-10-31T08:04:27;20.90;99.90
20528;DHT22;23612;50.894;10.700;2022-10-31T08:06:53;21.10;99.90
20528;DHT22;23612;50.894;10.700;2022-10-31T08:09:18;21.90;99.90
20528;DHT22;23612;50.894;10.700;2022-10-31T08:11:44;22.10;99.90
20528;DHT22;23612;50.894;10.700;2022-10-31T08:14:09;22.00;99.90
20528;DHT22;23612;50.894;10.700;2022-10-31T08:16:35;22.00;99.90
20528;DHT22;23612;50.894;10.700;2022-10-31T08:19:00;22.10;99.90
20528;DHT22;23612;50.894;10.700;2022-10-31T08:21:26;22.10;99.90
20528;DHT22;23612;50.894;10.700;2022-10-31T08:23:51;22.20;99.90
20528;DHT22;23612;50.894;10.700;2022-10-31T08:26:17;22.20;99.90
20528;DHT22;23612;50.894;10.700;2022-10-31T08:28:42;22.10;99.90
20528;DHT22;23612;50.894;10.700;2022-10-31T08:31:08;22.00;99.90
20528;DHT22;23612;50.894;10.700;2022-10-31T08:33:35;22.10;99.90
20528;DHT22;23612;50.894;10.700;2022-10-31T08:36:00;21.40;99.90
20528;DHT22;23612;50.894;10.700;2022-10-31T08:38:26;20.80;99.90
20528;DHT22;23612;50.894;10.700;2022-10-31T08:40:51;21.60;99.90
20528;DHT22;23612;50.894;10.700;2022-10-31T08:43:18;22.10;99.90
20528;DHT22;23612;50.894;10.700;2022-10-31T08:45:47;22.50;99.90
20528;DHT22;23612;50.894;10.700;2022-10-31T08:48:15;22.60;99.90
20528;DHT22;23612;50.894;10.700;2022-10-31T08:50:42;22.30;99.90
20528;DHT22;23612;50.894;10.700;2022-10-31T08:53:18;23.50;99.90
20528;DHT22;23612;50.894;10.700;2022-10-31T08:55:45;23.70;99.90
20528;DHT22;23612;50.894;10.700;2022-10-31T08:58:13;23.90;99.90
20528;DHT22;23612;50.894;10.700;2022-10-31T09:00:39;23.80;99.90
20528;DHT22;23612;50.894;10.700;2022-10-31T09:03:08;23.70;99.90
20528;DHT22;23612;50.894;10.700;2022-10-31T09:05:34;23.50;99.90
20528;DHT22;23612;50.894;10.700;2022-10-31T09:08:01;24.20;99.90
20528;DHT22;23612;50.894;10.700;2022-10-31T09:10:28;24.60;99.90
20528;DHT22;23612;50.894;10.700;2022-10-31T09:13:11;24.90;99.90
20528;DHT22;23612;50.894;10.700;2022-10-31T09:15:39;24.90;99.90
20528;DHT22;23612;50.894;10.700;2022-10-31T09:18:06;25.30;99.90
20528;DHT22;23612;50.894;10.700;2022-10-31T09:20:33;25.40;99.90
20528;DHT22;23612;50.894;10.700;2022-10-31T09:23:08;25.90;99.90
20528;DHT22;23612;50.894;10.700;2022-10-31T09:25:34;26.00;99.90
20528;DHT22;23612;50.894;10.700;2022-10-31T09:28:01;26.30;99.90
20528;DHT22;23612;50.894;10.700;2022-10-31T09:30:30;26.50;99.90
20528;DHT22;23612;50.894;10.700;2022-10-31T09:32:58;26.10;99.90
20528;DHT22;23612;50.894;10.700;2022-10-31T09:35:24;25.30;99.90
20528;DHT22;23612;50.894;10.700;2022-10-31T09:37:57;25.50;99.90
20528;DHT22;23612;50.894;10.700;2022-10-31T09:43:05;25.80;99.90
20528;DHT22;23612;50.894;10.700;2022-10-31T09:45:56;26.00;99.90
20528;DHT22;23612;50.894;10.700;2022-10-31T09:51:25;25.90;99.90
20528;DHT22;23612;50.894;10.700;2022-10-31T09:53:55;24.90;99.90
20528;DHT22;23612;50.894;10.700;2022-10-31T09:56:23;24.30;99.90
20528;DHT22;23612;50.894;10.700;2022-10-31T09:58:58;23.80;99.90
20528;DHT22;23612;50.894;10.700;2022-10-31T10:04:30;23.90;99.90
20528;DHT22;23612;50.894;10.700;2022-10-31T10:06:56;24.40;99.90
20528;DHT22;23612;50.894;10.700;2022-10-31T10:09:26;24.20;99.90
20528;DHT22;23612;50.894;10.700;2022-10-31T10:17:34;23.70;99.90
20528;DHT22;23612;50.894;10.700;2022-10-31T10:25:24;22.10;99.90
20528;DHT22;23612;50.894;10.700;2022-10-31T10:27:56;22.20;99.90
20528;DHT22;23612;50.894;10.700;2022-10-31T10:30:33;22.20;99.90
20528;DHT22;23612;50.894;10.700;2022-10-31T10:33:04;21.80;99.90
20528;DHT22;23612;50.894;10.700;2022-10-31T10:35:33;21.30;99.90
20528;DHT22;23612;50.894;10.700;2022-10-31T10:40:52;20.40;99.90
20528;DHT22;23612;50.894;10.700;2022-10-31T10:43:30;20.10;99.90
20528;DHT22;23612;50.894;10.700;2022-10-31T10:49:26;19.30;99.90
20528;DHT22;23612;50.894;10.700;2022-10-31T10:51:59;19.20;99.90
20528;DHT22;23612;50.894;10.700;2022-10-31T11:00:22;18.90;99.90
20528;DHT22;23612;50.894;10.700;2022-10-31T11:02:48;18.90;99.90
20528;DHT22;23612;50.894;10.700;2022-10-31T11:08:10;18.70;99.90
20528;DHT22;23612;50.894;10.700;2022-10-31T11:10:36;18.60;99.90
20528;DHT22;23612;50.894;10.700;2022-10-31T11:15:53;18.60;99.90
20528;DHT22;23612;50.894;10.700;2022-10-31T11:18:22;18.40;99.90
20528;DHT22;23612;50.894;10.700;2022-10-31T11:20:54;18.40;99.90
20528;DHT22;23612;50.894;10.700;2022-10-31T11:23:21;18.40;99.90
20528;DHT22;23612;50.894;10.700;2022-10-31T11:25:56;18.50;99.90
20528;DHT22;23612;50.894;10.700;2022-10-31T11:28:23;18.50;99.90
20528;DHT22;23612;50.894;10.700;2022-10-31T11:31:12;18.60;99.90
20528;DHT22;23612;50.894;10.700;2022-10-31T11:33:45;18.60;99.90
20528;DHT22;23612;50.894;10.700;2022-10-31T11:36:24;18.60;99.90
20528;DHT22;23612;50.894;10.700;2022-10-31T11:38:51;18.60;99.90
20528;DHT22;23612;50.894;10.700;2022-10-31T11:41:34;18.50;99.90
20528;DHT22;23612;50.894;10.700;2022-10-31T11:44:11;18.40;99.90
20528;DHT22;23612;50.894;10.700;2022-10-31T11:46:42;18.40;99.90
20528;DHT22;23612;50.894;10.700;2022-10-31T11:51:56;18.50;99.90
20528;DHT22;23612;50.894;10.700;2022-10-31T11:57:33;18.60;99.90
20528;DHT22;23612;50.894;10.700;2022-10-31T12:00:05;18.60;99.90
20528;DHT22;23612;50.894;10.700;2022-10-31T12:02:44;18.60;99.90
20528;DHT22;23612;50.894;10.700;2022-10-31T12:05:18;18.60;99.90
20528;DHT22;23612;50.894;10.700;2022-10-31T12:07:46;18.60;99.90
20528;DHT22;23612;50.894;10.700;2022-10-31T12:10:12;18.70;99.90
20528;DHT22;23612;50.894;10.700;2022-10-31T12:13:20;18.60;99.90
20528;DHT22;23612;50.894;10.700;2022-10-31T12:16:18;18.50;99.90
20528;DHT22;23612;50.894;10.700;2022-10-31T12:18:58;18.60;99.90
20528;DHT22;23612;50.894;10.700;2022-10-31T12:21:40;18.60;99.90
20528;DHT22;23612;50.894;10.700;2022-10-31T12:24:54;18.70;99.90
20528;DHT22;23612;50.894;10.700;2022-10-31T12:28:03;18.40;99.90
20528;DHT22;23612;50.894;10.700;2022-10-31T12:30:53;18.30;99.90
20528;DHT22;23612;50.894;10.700;2022-10-31T12:33:24;18.30;99.90
20528;DHT22;23612;50.894;10.700;2022-10-31T12:41:52;18.30;99.90
20528;DHT22;23612;50.894;10.700;2022-10-31T12:44:39;18.20;99.90
20528;DHT22;23612;50.894;10.700;2022-10-31T12:50:28;18.00;99.90
20528;DHT22;23612;50.894;10.700;2022-10-31T12:58:23;18.00;99.90
20528;DHT22;23612;50.894;10.700;2022-10-31T13:00:58;18.00;99.90
20528;DHT22;23612;50.894;10.700;2022-10-31T13:06:36;18.00;99.90
20528;DHT22;23612;50.894;10.700;2022-10-31T13:09:08;17.90;99.90
20528;DHT22;23612;50.894;10.700;2022-10-31T13:11:47;17.80;99.90
20528;DHT22;23612;50.894;10.700;2022-10-31T13:16:43;17.60;99.90
20528;DHT22;23612;50.894;10.700;2022-10-31T13:19:22;17.60;99.90
20528;DHT22;23612;50.894;10.700;2022-10-31T13:22:04;17.50;99.90
20528;DHT22;23612;50.894;10.700;2022-10-31T13:27:02;17.50;99.90
20528;DHT22;23612;50.894;10.700;2022-10-31T13:32:26;17.50;99.90
20528;DHT22;23612;50.894;10.700;2022-10-31T13:34:55;17.50;99.90
20528;DHT22;23612;50.894;10.700;2022-10-31T13:37:27;17.20;99.90
20528;DHT22;23612;50.894;10.700;2022-10-31T13:40:05;17.10;99.90
20528;DHT22;23612;50.894;10.700;2022-10-31T13:42:49;17.10;99.90
20528;DHT22;23612;50.894;10.700;2022-10-31T13:45:19;17.00;99.90
20528;DHT22;23612;50.894;10.700;2022-10-31T13:48:32;16.80;99.90
20528;DHT22;23612;50.894;10.700;2022-10-31T13:51:07;16.90;99.90
20528;DHT22;23612;50.894;10.700;2022-10-31T13:53:56;16.80;99.90
20528;DHT22;23612;50.894;10.700;2022-10-31T13:56:27;16.90;99.90
20528;DHT22;23612;50.894;10.700;2022-10-31T13:59:15;16.90;99.90
20528;DHT22;23612;50.894;10.700;2022-10-31T14:01:50;16.90;99.90
20528;DHT22;23612;50.894;10.700;2022-10-31T14:04:25;16.80;99.90
20528;DHT22;23612;50.894;10.700;2022-10-31T14:06:58;16.80;99.90
20528;DHT22;23612;50.894;10.700;2022-10-31T14:09:33;16.70;99.90
20528;DHT22;23612;50.894;10.700;2022-10-31T14:12:05;16.70;99.90
20528;DHT22;23612;50.894;10.700;2022-10-31T14:14:52;16.60;99.90
20528;DHT22;23612;50.894;10.700;2022-10-31T14:17:22;16.70;99.90
20528;DHT22;23612;50.894;10.700;2022-10-31T14:22:39;16.60;99.90
20528;DHT22;23612;50.894;10.700;2022-10-31T14:25:34;16.60;99.90
20528;DHT22;23612;50.894;10.700;2022-10-31T14:28:02;16.60;99.90
20528;DHT22;23612;50.894;10.700;2022-10-31T14:30:29;16.50;99.90
20528;DHT22;23612;50.894;10.700;2022-10-31T14:33:01;16.60;99.90
20528;DHT22;23612;50.894;10.700;2022-10-31T14:35:56;16.50;99.90
20528;DHT22;23612;50.894;10.700;2022-10-31T14:41:44;16.40;99.90
20528;DHT22;23612;50.894;10.700;2022-10-31T14:44:52;16.30;99.90
20528;DHT22;23612;50.894;10.700;2022-10-31T14:48:00;16.20;99.90
20528;DHT22;23612;50.894;10.700;2022-10-31T14:50:48;16.00;99.90
20528;DHT22;23612;50.894;10.700;2022-10-31T14:53:23;16.00;99.90
20528;DHT22;23612;50.894;10.700;2022-10-31T14:55:52;15.90;99.90
20528;DHT22;23612;50.894;10.700;2022-10-31T14:58:34;15.80;99.90
20528;DHT22;23612;50.894;10.700;2022-10-31T15:01:01;15.80;99.90
20528;DHT22;23612;50.894;10.700;2022-10-31T15:03:29;15.70;99.90
20528;DHT22;23612;50.894;10.700;2022-10-31T15:05:58;15.70;99.90
20528;DHT22;23612;50.894;10.700;2022-10-31T15:11:23;15.60;99.90
20528;DHT22;23612;50.894;10.700;2022-10-31T15:13:52;15.60;99.90
20528;DHT22;23612;50.894;10.700;2022-10-31T15:16:21;15.50;99.90
20528;DHT22;23612;50.894;10.700;2022-10-31T15:19:12;15.50;99.90
20528;DHT22;23612;50.894;10.700;2022-10-31T15:21:40;15.40;99.90
20528;DHT22;23612;50.894;10.700;2022-10-31T15:24:12;15.40;99.90
20528;DHT22;23612;50.894;10.700;2022-10-31T15:26:44;15.30;99.90
20528;DHT22;23612;50.894;10.700;2022-10-31T15:29:15;15.30;99.90
20528;DHT22;23612;50.894;10.700;2022-10-31T15:31:56;15.20;99.90
20528;DHT22;23612;50.894;10.700;2022-10-31T15:36:53;15.10;99.90
20528;DHT22;23612;50.894;10.700;2022-10-31T15:39:19;15.10;99.90
20528;DHT22;23612;50.894;10.700;2022-10-31T15:41:53;15.00;99.90
20528;DHT22;23612;50.894;10.700;2022-10-31T15:44:29;15.00;99.90
20528;DHT22;23612;50.894;10.700;2022-10-31T15:47:01;14.90;99.90
20528;DHT22;23612;50.894;10.700;2022-10-31T15:49:42;14.80;99.90
20528;DHT22;23612;50.894;10.700;2022-10-31T15:54:55;14.70;99.90
20528;DHT22;23612;50.894;10.700;2022-10-31T15:57:24;14.60;99.90
20528;DHT22;23612;50.894;10.700;2022-10-31T15:59:51;14.60;99.90
20528;DHT22;23612;50.894;10.700;2022-10-31T16:02:23;14.60;99.90
20528;DHT22;23612;50.894;10.700;2022-10-31T16:07:20;14.50;99.90
20528;DHT22;23612;50.894;10.700;2022-10-31T16:12:15;14.50;99.90
20528;DHT22;23612;50.894;10.700;2022-10-31T16:14:41;14.50;99.90
20528;DHT22;23612;50.894;10.700;2022-10-31T16:17:15;14.50;99.90
20528;DHT22;23612;50.894;10.700;2022-10-31T16:19:51;14.50;99.90
20528;DHT22;23612;50.894;10.700;2022-10-31T16:22:26;14.50;99.90
20528;DHT22;23612;50.894;10.700;2022-10-31T16:24:59;14.40;99.90
20528;DHT22;23612;50.894;10.700;2022-10-31T16:27:28;14.40;99.90
20528;DHT22;23612;50.894;10.700;2022-10-31T16:29:56;14.40;99.90
20528;DHT22;23612;50.894;10.700;2022-10-31T16:32:32;14.40;99.90
20528;DHT22;23612;50.894;10.700;2022-10-31T16:37:42;14.40;99.90
20528;DHT22;23612;50.894;10.700;2022-10-31T16:40:11;14.30;99.90
20528;DHT22;23612;50.894;10.700;2022-10-31T16:42:36;14.20;99.90
20528;DHT22;23612;50.894;10.700;2022-10-31T16:45:03;14.00;99.90
20528;DHT22;23612;50.894;10.700;2022-10-31T16:47:30;14.00;99.90
20528;DHT22;23612;50.894;10.700;2022-10-31T16:49:55;13.90;99.90
20528;DHT22;23612;50.894;10.700;2022-10-31T16:52:25;13.80;99.90
20528;DHT22;23612;50.894;10.700;2022-10-31T16:54:50;13.70;99.90
20528;DHT22;23612;50.894;10.700;2022-10-31T16:57:19;13.70;99.90
20528;DHT22;23612;50.894;10.700;2022-10-31T16:59:51;13.60;99.90
20528;DHT22;23612;50.894;10.700;2022-10-31T17:02:19;13.60;99.90
20528;DHT22;23612;50.894;10.700;2022-10-31T17:04:45;13.60;99.90
20528;DHT22;23612;50.894;10.700;2022-10-31T17:07:10;13.50;99.90
20528;DHT22;23612;50.894;10.700;2022-10-31T17:09:36;13.40;99.90
20528;DHT22;23612;50.894;10.700;2022-10-31T17:12:02;13.40;99.90
20528;DHT22;23612;50.894;10.700;2022-10-31T17:14:28;13.40;99.90
20528;DHT22;23612;50.894;10.700;2022-10-31T17:16:54;13.40;99.90
20528;DHT22;23612;50.894;10.700;2022-10-31T17:19:19;13.40;99.90
20528;DHT22;23612;50.894;10.700;2022-10-31T17:21:45;13.40;99.90
20528;DHT22;23612;50.894;10.700;2022-10-31T17:24:14;13.50;99.90
20528;DHT22;23612;50.894;10.700;2022-10-31T17:26:40;13.40;99.90
20528;DHT22;23612;50.894;10.700;2022-10-31T17:29:06;13.40;99.90
20528;DHT22;23612;50.894;10.700;2022-10-31T17:31:33;13.40;99.90